Time,TemperatureF,DewpointF,PressureIn,WindDirection,WindDirectionDegrees,WindSpeedMPH,WindSpeedGustMPH,Humidity,HourlyPrecipIn,Conditions,Clouds,dailyrainin,SoftwareType,DateUTC
2013-12-02 01:35:00,75.9,75.3,29.78,NE,45,4.2,-999.0,98,-99.99,,,0.00,Acu-Link.com,2013-12-02 06:35:00,
2013-12-02 01:51:00,75.7,75.1,29.79,SW,225,3.7,-999.0,98,-99.99,,,0.00,Acu-Link.com,2013-12-02 06:51:00,
2013-12-02 03:30:00,75.6,75.0,29.74,West,270,5.3,-999.0,98,-99.99,,,0.00,Acu-Link.com,2013-12-02 08:30:00,
2013-12-02 03:46:00,75.6,75.0,29.71,NNE,22,3.7,-999.0,98,-99.99,,,0.00,Acu-Link.com,2013-12-02 08:46:00,
2013-12-02 04:01:00,75.9,75.3,29.78,WSW,247,4.7,-999.0,98,-99.99,,,0.00,Acu-Link.com,2013-12-02 09:01:00,
2013-12-02 04:16:00,76.1,75.5,29.73,SW,225,5.3,-999.0,98,-99.99,,,0.00,Acu-Link.com,2013-12-02 09:16:00,
2013-12-02 04:34:00,76.1,75.5,29.73,WSW,247,3.2,-999.0,98,-99.99,,,0.00,Acu-Link.com,2013-12-02 09:34:00,
2013-12-02 04:49:00,76.5,75.9,29.70,West,270,6.8,-999.0,98,-99.99,,,0.00,Acu-Link.com,2013-12-02 09:49:00,
2013-12-02 05:04:00,76.5,75.9,29.74,NNW,337,4.2,-999.0,98,-99.99,,,0.00,Acu-Link.com,2013-12-02 10:04:00,
2013-12-02 05:19:00,76.6,76.0,29.79,West,270,3.7,-999.0,98,-99.99,,,0.00,Acu-Link.com,2013-12-02 10:19:00,
2013-12-02 05:34:00,76.8,76.2,29.76,NNW,337,3.2,-999.0,98,-99.99,,,0.00,Acu-Link.com,2013-12-02 10:34:00,
2013-12-02 05:49:00,76.8,76.2,29.74,WSW,247,4.7,-999.0,98,-99.99,,,0.00,Acu-Link.com,2013-12-02 10:49:00,
2013-12-02 06:04:00,76.8,76.2,29.71,WNW,292,6.8,-999.0,98,-99.99,,,0.00,Acu-Link.com,2013-12-02 11:04:00,
2013-12-02 06:20:00,76.6,76.0,29.74,West,270,7.3,-999.0,98,-99.99,,,0.00,Acu-Link.com,2013-12-02 11:20:00,
2013-12-02 06:35:00,76.5,75.9,29.72,West,270,3.2,-999.0,98,-99.99,,,0.00,Acu-Link.com,2013-12-02 11:35:00,
2013-12-02 06:50:00,76.3,75.7,29.79,WSW,247,4.7,-999.0,98,-99.99,,,0.00,Acu-Link.com,2013-12-02 11:50:00,
2013-12-02 07:05:00,76.5,75.9,29.77,NNW,337,2.7,-999.0,98,-99.99,,,0.00,Acu-Link.com,2013-12-02 12:05:00,
2013-12-02 07:21:00,76.6,76.0,29.77,NNW,337,3.2,-999.0,98,-99.99,,,0.00,Acu-Link.com,2013-12-02 12:21:00,
2013-12-02 07:36:00,76.6,76.0,29.74,South,180,5.3,-999.0,98,-99.99,,,0.00,Acu-Link.com,2013-12-02 12:36:00,
2013-12-02 07:51:00,76.6,76.0,29.75,West,270,5.3,-999.0,98,-99.99,,,0.00,Acu-Link.com,2013-12-02 12:51:00,
2013-12-02 08:06:00,76.8,76.2,29.78,SW,225,6.8,-999.0,98,-99.99,,,0.00,Acu-Link.com,2013-12-02 13:06:00,
2013-12-02 08:21:00,76.5,75.9,29.78,West,270,4.7,-999.0,98,-99.99,,,0.00,Acu-Link.com,2013-12-02 13:21:00,
2013-12-02 08:36:00,76.1,75.5,29.78,NNW,337,4.2,-999.0,98,-99.99,,,0.00,Acu-Link.com,2013-12-02 13:36:00,
2013-12-02 08:51:00,75.6,75.0,29.78,SW,225,5.3,-999.0,98,-99.99,,,0.00,Acu-Link.com,2013-12-02 13:51:00,
2013-12-02 09:06:00,75.7,75.1,29.76,West,270,3.7,-999.0,98,-99.99,,,0.00,Acu-Link.com,2013-12-02 14:06:00,
2013-12-02 09:22:00,75.6,75.0,29.78,SSW,202,6.8,-999.0,98,-99.99,,,0.00,Acu-Link.com,2013-12-02 14:22:00,
2013-12-02 09:37:00,75.2,74.6,29.84,WNW,292,5.3,-999.0,98,-99.99,,,0.00,Acu-Link.com,2013-12-02 14:37:00,
2013-12-02 09:52:00,75.4,74.8,29.76,NW,315,2.2,-999.0,98,-99.99,,,0.00,Acu-Link.com,2013-12-02 14:52:00,
2013-12-02 10:07:00,75.2,74.6,29.80,NW,315,3.7,-999.0,98,-99.99,,,0.00,Acu-Link.com,2013-12-02 15:07:00,
2013-12-02 10:22:00,75.0,74.4,29.81,West,270,3.7,-999.0,98,-99.99,,,0.00,Acu-Link.com,2013-12-02 15:22:00,
2013-12-02 10:37:00,71.8,71.2,29.84,NNW,337,3.7,-999.0,98,-99.99,,,0.00,Acu-Link.com,2013-12-02 15:37:00,
2013-12-02 10:52:00,70.7,70.1,29.79,West,270,3.2,-999.0,98,-99.99,,,0.00,Acu-Link.com,2013-12-02 15:52:00,
2013-12-02 11:08:00,70.7,70.1,29.79,West,270,7.8,-999.0,98,-99.99,,,0.00,Acu-Link.com,2013-12-02 16:08:00,
2013-12-02 11:23:00,68.7,68.1,29.82,West,270,5.8,-999.0,98,-99.99,,,0.00,Acu-Link.com,2013-12-02 16:23:00,
2013-12-02 11:38:00,68.5,67.9,29.74,WNW,292,3.7,-999.0,98,-99.99,,,0.00,Acu-Link.com,2013-12-02 16:38:00,
2013-12-02 11:53:00,69.4,68.8,29.72,West,270,4.2,-999.0,98,-99.99,,,0.00,Acu-Link.com,2013-12-02 16:53:00,
2013-12-02 12:08:00,69.8,69.2,29.75,SW,225,5.3,-999.0,98,-99.99,,,0.00,Acu-Link.com,2013-12-02 17:08:00,
2013-12-02 12:24:00,70.5,69.9,29.76,West,270,5.8,-999.0,98,-99.99,,,0.00,Acu-Link.com,2013-12-02 17:24:00,
2013-12-02 12:39:00,71.6,71.0,29.78,WSW,247,2.7,-999.0,98,-99.99,,,0.00,Acu-Link.com,2013-12-02 17:39:00,
2013-12-02 12:54:00,71.8,71.2,29.70,West,270,5.8,-999.0,98,-99.99,,,0.00,Acu-Link.com,2013-12-02 17:54:00,
2013-12-02 13:09:00,73.0,72.4,29.69,NNE,22,5.3,-999.0,98,-99.99,,,0.00,Acu-Link.com,2013-12-02 18:09:00,
2013-12-02 13:24:00,73.9,72.1,29.77,East,90,5.3,-999.0,94,-99.99,,,0.00,Acu-Link.com,2013-12-02 18:24:00,
2013-12-02 13:40:00,74.1,68.9,29.72,NE,45,4.7,-999.0,84,-99.99,,,0.00,Acu-Link.com,2013-12-02 18:40:00,
2013-12-02 13:55:00,74.3,68.4,29.76,NNE,22,5.8,-999.0,82,-99.99,,,0.00,Acu-Link.com,2013-12-02 18:55:00,
2013-12-02 14:10:00,73.9,67.0,29.68,North,0,4.7,-999.0,79,-99.99,,,0.00,Acu-Link.com,2013-12-02 19:10:00,
2013-12-02 14:25:00,74.8,68.2,29.75,NE,45,3.7,-999.0,80,-99.99,,,0.00,Acu-Link.com,2013-12-02 19:25:00,
2013-12-02 14:40:00,74.5,66.4,29.67,WNW,292,4.2,-999.0,76,-99.99,,,0.00,Acu-Link.com,2013-12-02 19:40:00,
2013-12-02 14:55:00,74.8,67.1,29.69,SSW,202,2.7,-999.0,77,-99.99,,,0.00,Acu-Link.com,2013-12-02 19:55:00,
2013-12-02 15:11:00,74.5,63.6,29.70,South,180,4.2,-999.0,69,-99.99,,,0.00,Acu-Link.com,2013-12-02 20:11:00,
2013-12-02 15:26:00,74.1,65.3,29.70,NE,45,3.7,-999.0,74,-99.99,,,0.00,Acu-Link.com,2013-12-02 20:26:00,
2013-12-02 15:41:00,73.8,67.6,29.70,ENE,67,3.7,-999.0,81,-99.99,,,0.00,Acu-Link.com,2013-12-02 20:41:00,
2013-12-02 15:56:00,73.4,66.8,29.72,NE,45,2.2,-999.0,80,-99.99,,,0.00,Acu-Link.com,2013-12-02 20:56:00,
2013-12-02 16:11:00,72.7,67.6,29.68,NE,45,4.2,-999.0,84,-99.99,,,0.00,Acu-Link.com,2013-12-02 21:11:00,
2013-12-02 16:26:00,71.8,67.4,29.68,NNE,22,1.7,-999.0,86,-99.99,,,0.00,Acu-Link.com,2013-12-02 21:26:00,
2013-12-02 16:41:00,71.2,67.8,29.75,North,0,1.7,-999.0,89,-99.99,,,0.00,Acu-Link.com,2013-12-02 21:41:00,
2013-12-02 16:57:00,70.7,67.9,29.71,WNW,292,1.7,-999.0,91,-99.99,,,0.00,Acu-Link.com,2013-12-02 21:57:00,
2013-12-02 17:12:00,70.2,68.1,29.70,NNW,337,1.1,-999.0,93,-99.99,,,0.00,Acu-Link.com,2013-12-02 22:12:00,
2013-12-02 17:28:00,69.6,68.1,29.68,NNW,337,1.1,-999.0,95,-99.99,,,0.00,Acu-Link.com,2013-12-02 22:28:00,
2013-12-02 17:43:00,69.3,68.7,29.76,NNW,337,0.0,-999.0,98,-99.99,,,0.00,Acu-Link.com,2013-12-02 22:43:00,
2013-12-02 18:00:00,68.7,68.1,29.69,NNW,337,0.0,-999.0,98,-99.99,,,0.00,Acu-Link.com,2013-12-02 23:00:00,
2013-12-02 18:15:00,68.2,67.6,29.75,NNW,337,0.0,-999.0,98,-99.99,,,0.00,Acu-Link.com,2013-12-02 23:15:00,
2013-12-02 18:31:00,67.6,67.0,29.77,NNW,337,1.7,-999.0,98,-99.99,,,0.00,Acu-Link.com,2013-12-02 23:31:00,
2013-12-02 18:46:00,67.3,66.7,29.77,NNW,337,2.2,-999.0,98,-99.99,,,0.00,Acu-Link.com,2013-12-02 23:46:00,
2013-12-02 19:11:00,66.9,66.3,29.79,NNW,337,0.0,-999.0,98,-99.99,,,0.00,Acu-Link.com,2013-12-03 00:11:00,
2013-12-02 19:29:00,66.4,65.8,29.74,NNW,337,2.2,-999.0,98,-99.99,,,0.00,Acu-Link.com,2013-12-03 00:29:00,
2013-12-02 19:45:00,65.8,65.2,29.79,NNW,337,0.0,-999.0,98,-99.99,,,0.00,Acu-Link.com,2013-12-03 00:45:00,
2013-12-02 20:01:00,65.3,64.7,29.77,NNW,337,1.1,-999.0,98,-99.99,,,0.00,Acu-Link.com,2013-12-03 01:01:00,
2013-12-02 20:16:00,65.1,64.5,29.77,NNW,337,0.0,-999.0,98,-99.99,,,0.00,Acu-Link.com,2013-12-03 01:16:00,
2013-12-02 20:31:00,64.9,64.3,29.77,NNW,337,0.0,-999.0,98,-99.99,,,0.00,Acu-Link.com,2013-12-03 01:31:00,
2013-12-02 20:47:00,64.9,64.3,29.77,NNW,337,1.1,-999.0,98,-99.99,,,0.00,Acu-Link.com,2013-12-03 01:47:00,
2013-12-02 21:02:00,65.1,64.5,29.74,North,0,1.7,-999.0,98,-99.99,,,0.00,Acu-Link.com,2013-12-03 02:02:00,
2013-12-02 21:20:00,64.8,64.2,29.80,North,0,0.0,-999.0,98,-99.99,,,0.00,Acu-Link.com,2013-12-03 02:20:00,
2013-12-02 21:35:00,64.2,63.6,29.78,North,0,0.0,-999.0,98,-99.99,,,0.00,Acu-Link.com,2013-12-03 02:35:00,
2013-12-02 21:51:00,63.5,62.9,29.81,North,0,0.0,-999.0,98,-99.99,,,0.00,Acu-Link.com,2013-12-03 02:51:00,
2013-12-02 22:06:00,62.8,62.2,29.75,North,0,0.0,-999.0,98,-99.99,,,0.00,Acu-Link.com,2013-12-03 03:06:00,
2013-12-02 22:21:00,62.2,61.6,29.80,North,0,0.0,-999.0,98,-99.99,,,0.00,Acu-Link.com,2013-12-03 03:21:00,
2013-12-02 22:36:00,62.1,61.5,29.79,North,0,0.0,-999.0,98,-99.99,,,0.00,Acu-Link.com,2013-12-03 03:36:00,
2013-12-02 22:51:00,61.9,61.3,29.76,North,0,0.0,-999.0,98,-99.99,,,0.00,Acu-Link.com,2013-12-03 03:51:00,
2013-12-02 23:06:00,62.1,61.5,29.77,North,0,0.0,-999.0,98,-99.99,,,0.00,Acu-Link.com,2013-12-03 04:06:00,
2013-12-02 23:22:00,61.3,60.7,29.76,North,0,0.0,-999.0,98,-99.99,,,0.00,Acu-Link.com,2013-12-03 04:22:00,
2013-12-02 23:37:00,61.2,60.6,29.76,North,0,0.0,-999.0,98,-99.99,,,0.00,Acu-Link.com,2013-12-03 04:37:00,
2013-12-02 23:52:00,61.3,60.7,29.82,North,0,0.0,-999.0,98,-99.99,,,0.00,Acu-Link.com,2013-12-03 04:52:00,